sensor_id;sensor_type;location;lat;lon;timestamp;P1;durP1;ratioP1;P2;durP2;ratioP2
81629;SDS011;71039;49.500;10.418;2023-07-13T00:01:16;0.63;;;0.63;;
81629;SDS011;71039;49.500;10.418;2023-07-13T00:03:42;1.73;;;0.70;;
81629;SDS011;71039;49.500;10.418;2023-07-13T00:06:08;0.47;;;0.47;;
81629;SDS011;71039;49.500;10.418;2023-07-13T00:08:34;0.75;;;0.75;;
81629;SDS011;71039;49.500;10.418;2023-07-13T00:11:00;0.75;;;0.57;;
81629;SDS011;71039;49.500;10.418;2023-07-13T00:15:52;0.85;;;0.73;;
81629;SDS011;71039;49.500;10.418;2023-07-13T00:18:18;0.80;;;0.80;;
81629;SDS011;71039;49.500;10.418;2023-07-13T00:20:45;1.58;;;0.63;;
81629;SDS011;71039;49.500;10.418;2023-07-13T00:23:10;0.70;;;0.63;;
81629;SDS011;71039;49.500;10.418;2023-07-13T00:25:36;0.90;;;0.90;;
81629;SDS011;71039;49.500;10.418;2023-07-13T00:28:01;1.33;;;0.70;;
81629;SDS011;71039;49.500;10.418;2023-07-13T00:30:28;0.70;;;0.70;;
81629;SDS011;71039;49.500;10.418;2023-07-13T00:32:56;1.98;;;0.80;;
81629;SDS011;71039;49.500;10.418;2023-07-13T00:35:22;1.20;;;0.85;;
81629;SDS011;71039;49.500;10.418;2023-07-13T00:37:48;1.00;;;0.90;;
81629;SDS011;71039;49.500;10.418;2023-07-13T00:40:17;0.73;;;0.73;;
81629;SDS011;71039;49.500;10.418;2023-07-13T00:42:44;0.60;;;0.60;;
81629;SDS011;71039;49.500;10.418;2023-07-13T00:47:39;1.00;;;1.00;;
81629;SDS011;71039;49.500;10.418;2023-07-13T00:50:06;0.88;;;0.73;;
81629;SDS011;71039;49.500;10.418;2023-07-13T00:52:35;0.70;;;0.65;;
81629;SDS011;71039;49.500;10.418;2023-07-13T00:55:02;0.80;;;0.80;;
81629;SDS011;71039;49.500;10.418;2023-07-13T00:57:29;0.63;;;0.63;;
81629;SDS011;71039;49.500;10.418;2023-07-13T00:59:55;0.82;;;0.82;;
81629;SDS011;71039;49.500;10.418;2023-07-13T01:02:25;0.93;;;0.93;;
81629;SDS011;71039;49.500;10.418;2023-07-13T01:04:55;1.17;;;0.70;;
81629;SDS011;71039;49.500;10.418;2023-07-13T01:07:21;0.77;;;0.77;;
81629;SDS011;71039;49.500;10.418;2023-07-13T01:09:47;2.95;;;1.13;;
81629;SDS011;71039;49.500;10.418;2023-07-13T01:12:13;0.73;;;0.73;;
81629;SDS011;71039;49.500;10.418;2023-07-13T01:14:38;1.40;;;1.30;;
81629;SDS011;71039;49.500;10.418;2023-07-13T01:17:04;0.95;;;0.73;;
81629;SDS011;71039;49.500;10.418;2023-07-13T01:19:35;1.05;;;1.05;;
81629;SDS011;71039;49.500;10.418;2023-07-13T01:22:03;0.70;;;0.70;;
81629;SDS011;71039;49.500;10.418;2023-07-13T01:24:37;0.95;;;0.90;;
81629;SDS011;71039;49.500;10.418;2023-07-13T01:27:06;1.33;;;0.80;;
81629;SDS011;71039;49.500;10.418;2023-07-13T01:29:33;0.63;;;0.63;;
81629;SDS011;71039;49.500;10.418;2023-07-13T01:32:00;1.02;;;0.93;;
81629;SDS011;71039;49.500;10.418;2023-07-13T01:34:25;1.33;;;1.25;;
81629;SDS011;71039;49.500;10.418;2023-07-13T01:36:52;0.63;;;0.60;;
81629;SDS011;71039;49.500;10.418;2023-07-13T01:39:18;1.92;;;0.93;;
81629;SDS011;71039;49.500;10.418;2023-07-13T01:41:43;0.85;;;0.80;;
81629;SDS011;71039;49.500;10.418;2023-07-13T01:44:09;0.80;;;0.80;;
81629;SDS011;71039;49.500;10.418;2023-07-13T01:46:34;1.17;;;1.08;;
81629;SDS011;71039;49.500;10.418;2023-07-13T01:49:00;0.63;;;0.63;;
81629;SDS011;71039;49.500;10.418;2023-07-13T01:51:25;1.13;;;0.93;;
81629;SDS011;71039;49.500;10.418;2023-07-13T01:53:52;0.95;;;0.88;;
81629;SDS011;71039;49.500;10.418;2023-07-13T01:56:17;0.73;;;0.73;;
81629;SDS011;71039;49.500;10.418;2023-07-13T01:58:44;1.63;;;0.98;;
81629;SDS011;71039;49.500;10.418;2023-07-13T02:03:35;0.93;;;0.93;;
81629;SDS011;71039;49.500;10.418;2023-07-13T02:06:01;0.80;;;0.80;;
81629;SDS011;71039;49.500;10.418;2023-07-13T02:08:26;0.75;;;0.75;;
81629;SDS011;71039;49.500;10.418;2023-07-13T02:10:52;0.88;;;0.88;;
81629;SDS011;71039;49.500;10.418;2023-07-13T02:13:17;0.93;;;0.93;;
81629;SDS011;71039;49.500;10.418;2023-07-13T02:15:43;1.40;;;1.30;;
81629;SDS011;71039;49.500;10.418;2023-07-13T02:18:09;1.02;;;1.02;;
81629;SDS011;71039;49.500;10.418;2023-07-13T02:20:34;1.17;;;0.88;;
81629;SDS011;71039;49.500;10.418;2023-07-13T02:23:00;1.13;;;1.10;;
81629;SDS011;71039;49.500;10.418;2023-07-13T02:25:25;1.17;;;1.08;;
81629;SDS011;71039;49.500;10.418;2023-07-13T02:27:51;0.70;;;0.70;;
81629;SDS011;71039;49.500;10.418;2023-07-13T02:30:17;0.80;;;0.80;;
81629;SDS011;71039;49.500;10.418;2023-07-13T02:32:43;1.02;;;0.93;;
81629;SDS011;71039;49.500;10.418;2023-07-13T02:35:08;0.98;;;0.88;;
81629;SDS011;71039;49.500;10.418;2023-07-13T02:37:36;1.17;;;0.98;;
81629;SDS011;71039;49.500;10.418;2023-07-13T02:40:02;0.60;;;0.60;;
81629;SDS011;71039;49.500;10.418;2023-07-13T02:42:28;1.27;;;1.17;;
81629;SDS011;71039;49.500;10.418;2023-07-13T02:44:54;0.88;;;0.88;;
81629;SDS011;71039;49.500;10.418;2023-07-13T02:47:19;1.67;;;0.63;;
81629;SDS011;71039;49.500;10.418;2023-07-13T02:49:45;1.10;;;1.10;;
81629;SDS011;71039;49.500;10.418;2023-07-13T02:52:10;1.13;;;1.08;;
81629;SDS011;71039;49.500;10.418;2023-07-13T02:54:36;0.60;;;0.60;;
81629;SDS011;71039;49.500;10.418;2023-07-13T02:57:01;0.73;;;0.73;;
81629;SDS011;71039;49.500;10.418;2023-07-13T02:59:27;1.38;;;1.27;;
81629;SDS011;71039;49.500;10.418;2023-07-13T03:01:52;1.33;;;1.25;;
81629;SDS011;71039;49.500;10.418;2023-07-13T03:04:18;1.20;;;1.10;;
81629;SDS011;71039;49.500;10.418;2023-07-13T03:06:44;0.93;;;0.93;;
81629;SDS011;71039;49.500;10.418;2023-07-13T03:09:09;1.08;;;1.05;;
81629;SDS011;71039;49.500;10.418;2023-07-13T03:11:38;1.02;;;1.02;;
81629;SDS011;71039;49.500;10.418;2023-07-13T03:14:24;0.82;;;0.82;;
81629;SDS011;71039;49.500;10.418;2023-07-13T03:16:50;1.17;;;1.05;;
81629;SDS011;71039;49.500;10.418;2023-07-13T03:19:16;1.42;;;0.95;;
81629;SDS011;71039;49.500;10.418;2023-07-13T03:21:46;1.02;;;1.02;;
81629;SDS011;71039;49.500;10.418;2023-07-13T03:24:11;0.90;;;0.90;;
81629;SDS011;71039;49.500;10.418;2023-07-13T03:26:37;0.80;;;0.80;;
81629;SDS011;71039;49.500;10.418;2023-07-13T03:29:03;0.60;;;0.60;;
81629;SDS011;71039;49.500;10.418;2023-07-13T03:31:32;1.10;;;1.10;;
81629;SDS011;71039;49.500;10.418;2023-07-13T03:33:59;1.02;;;1.02;;
81629;SDS011;71039;49.500;10.418;2023-07-13T03:36:25;1.13;;;1.13;;
81629;SDS011;71039;49.500;10.418;2023-07-13T03:38:57;1.02;;;1.02;;
81629;SDS011;71039;49.500;10.418;2023-07-13T03:41:28;1.17;;;1.08;;
81629;SDS011;71039;49.500;10.418;2023-07-13T03:43:54;0.90;;;0.90;;
81629;SDS011;71039;49.500;10.418;2023-07-13T03:46:22;3.10;;;0.95;;
81629;SDS011;71039;49.500;10.418;2023-07-13T03:48:48;0.95;;;0.95;;
81629;SDS011;71039;49.500;10.418;2023-07-13T03:51:14;1.02;;;0.90;;
81629;SDS011;71039;49.500;10.418;2023-07-13T03:53:42;1.33;;;0.93;;
81629;SDS011;71039;49.500;10.418;2023-07-13T03:56:10;1.05;;;1.05;;
81629;SDS011;71039;49.500;10.418;2023-07-13T03:58:37;0.98;;;0.88;;
81629;SDS011;71039;49.500;10.418;2023-07-13T04:01:10;1.23;;;1.13;;
81629;SDS011;71039;49.500;10.418;2023-07-13T04:03:37;1.00;;;1.00;;
81629;SDS011;71039;49.500;10.418;2023-07-13T04:06:05;0.80;;;0.80;;
81629;SDS011;71039;49.500;10.418;2023-07-13T04:08:34;1.83;;;1.10;;
81629;SDS011;71039;49.500;10.418;2023-07-13T04:11:01;1.08;;;1.05;;
81629;SDS011;71039;49.500;10.418;2023-07-13T04:13:27;1.38;;;1.00;;
81629;SDS011;71039;49.500;10.418;2023-07-13T04:15:53;1.40;;;1.30;;
81629;SDS011;71039;49.500;10.418;2023-07-13T04:18:18;1.50;;;1.40;;
81629;SDS011;71039;49.500;10.418;2023-07-13T04:20:44;0.80;;;0.80;;
81629;SDS011;71039;49.500;10.418;2023-07-13T04:23:10;0.85;;;0.85;;
81629;SDS011;71039;49.500;10.418;2023-07-13T04:25:36;0.80;;;0.80;;
81629;SDS011;71039;49.500;10.418;2023-07-13T04:28:02;1.15;;;1.10;;
81629;SDS011;71039;49.500;10.418;2023-07-13T04:32:54;1.13;;;1.13;;
81629;SDS011;71039;49.500;10.418;2023-07-13T04:35:20;1.27;;;0.93;;
81629;SDS011;71039;49.500;10.418;2023-07-13T04:37:46;0.82;;;0.82;;
81629;SDS011;71039;49.500;10.418;2023-07-13T04:40:15;1.23;;;1.13;;
81629;SDS011;71039;49.500;10.418;2023-07-13T04:42:44;2.92;;;1.00;;
81629;SDS011;71039;49.500;10.418;2023-07-13T04:45:11;3.00;;;1.27;;
81629;SDS011;71039;49.500;10.418;2023-07-13T04:47:37;0.98;;;0.98;;
81629;SDS011;71039;49.500;10.418;2023-07-13T04:50:03;0.98;;;0.98;;
81629;SDS011;71039;49.500;10.418;2023-07-13T04:52:29;1.33;;;1.13;;
81629;SDS011;71039;49.500;10.418;2023-07-13T04:54:54;0.75;;;0.75;;
81629;SDS011;71039;49.500;10.418;2023-07-13T04:57:20;1.00;;;1.00;;
81629;SDS011;71039;49.500;10.418;2023-07-13T04:59:45;1.35;;;1.08;;
81629;SDS011;71039;49.500;10.418;2023-07-13T05:02:11;0.73;;;0.73;;
81629;SDS011;71039;49.500;10.418;2023-07-13T05:04:36;1.10;;;1.02;;
81629;SDS011;71039;49.500;10.418;2023-07-13T05:07:02;1.70;;;0.80;;
81629;SDS011;71039;49.500;10.418;2023-07-13T05:09:27;0.82;;;0.82;;
81629;SDS011;71039;49.500;10.418;2023-07-13T05:11:53;1.33;;;1.23;;
81629;SDS011;71039;49.500;10.418;2023-07-13T05:14:18;0.95;;;0.93;;
81629;SDS011;71039;49.500;10.418;2023-07-13T05:16:44;1.13;;;1.02;;
81629;SDS011;71039;49.500;10.418;2023-07-13T05:19:09;0.88;;;0.88;;
81629;SDS011;71039;49.500;10.418;2023-07-13T05:21:37;1.13;;;0.73;;
81629;SDS011;71039;49.500;10.418;2023-07-13T05:24:02;0.93;;;0.93;;
81629;SDS011;71039;49.500;10.418;2023-07-13T05:26:28;1.20;;;1.10;;
81629;SDS011;71039;49.500;10.418;2023-07-13T05:28:54;1.08;;;0.93;;
81629;SDS011;71039;49.500;10.418;2023-07-13T05:31:19;1.35;;;1.25;;
81629;SDS011;71039;49.500;10.418;2023-07-13T05:33:45;0.80;;;0.80;;
81629;SDS011;71039;49.500;10.418;2023-07-13T05:36:10;2.25;;;1.10;;
81629;SDS011;71039;49.500;10.418;2023-07-13T05:38:36;1.20;;;1.17;;
81629;SDS011;71039;49.500;10.418;2023-07-13T05:41:01;1.02;;;0.82;;
81629;SDS011;71039;49.500;10.418;2023-07-13T05:43:27;1.20;;;1.00;;
81629;SDS011;71039;49.500;10.418;2023-07-13T05:45:53;2.22;;;1.35;;
81629;SDS011;71039;49.500;10.418;2023-07-13T05:48:19;0.80;;;0.80;;
81629;SDS011;71039;49.500;10.418;2023-07-13T05:50:45;1.88;;;0.90;;
81629;SDS011;71039;49.500;10.418;2023-07-13T05:53:11;1.08;;;0.63;;
81629;SDS011;71039;49.500;10.418;2023-07-13T05:55:40;6.50;;;1.15;;
81629;SDS011;71039;49.500;10.418;2023-07-13T05:58:09;2.13;;;1.70;;
81629;SDS011;71039;49.500;10.418;2023-07-13T06:00:35;1.17;;;0.70;;
81629;SDS011;71039;49.500;10.418;2023-07-13T06:03:01;3.47;;;0.70;;
81629;SDS011;71039;49.500;10.418;2023-07-13T06:05:26;3.80;;;0.90;;
81629;SDS011;71039;49.500;10.418;2023-07-13T06:07:52;0.65;;;0.60;;
81629;SDS011;71039;49.500;10.418;2023-07-13T06:10:17;1.05;;;1.00;;
81629;SDS011;71039;49.500;10.418;2023-07-13T06:12:43;3.70;;;1.02;;
81629;SDS011;71039;49.500;10.418;2023-07-13T06:15:08;0.88;;;0.73;;
81629;SDS011;71039;49.500;10.418;2023-07-13T06:17:34;0.70;;;0.60;;
81629;SDS011;71039;49.500;10.418;2023-07-13T06:20:00;1.23;;;0.63;;
81629;SDS011;71039;49.500;10.418;2023-07-13T06:22:25;0.32;;;0.32;;
81629;SDS011;71039;49.500;10.418;2023-07-13T06:24:51;0.85;;;0.60;;
81629;SDS011;71039;49.500;10.418;2023-07-13T06:27:17;0.45;;;0.45;;
81629;SDS011;71039;49.500;10.418;2023-07-13T06:29:42;1.58;;;0.55;;
81629;SDS011;71039;49.500;10.418;2023-07-13T06:32:08;3.90;;;0.70;;
81629;SDS011;71039;49.500;10.418;2023-07-13T06:34:34;1.10;;;0.50;;
81629;SDS011;71039;49.500;10.418;2023-07-13T06:36:59;0.40;;;0.30;;
81629;SDS011;71039;49.500;10.418;2023-07-13T06:39:25;0.75;;;0.30;;
81629;SDS011;71039;49.500;10.418;2023-07-13T06:41:50;1.42;;;0.40;;
81629;SDS011;71039;49.500;10.418;2023-07-13T06:44:17;2.42;;;0.50;;
81629;SDS011;71039;49.500;10.418;2023-07-13T06:46:42;4.22;;;0.50;;
81629;SDS011;71039;49.500;10.418;2023-07-13T06:49:08;0.80;;;0.45;;
81629;SDS011;71039;49.500;10.418;2023-07-13T06:51:34;0.80;;;0.30;;
81629;SDS011;71039;49.500;10.418;2023-07-13T06:53:59;2.00;;;0.40;;
81629;SDS011;71039;49.500;10.418;2023-07-13T06:56:25;0.38;;;0.38;;
81629;SDS011;71039;49.500;10.418;2023-07-13T06:58:50;0.30;;;0.30;;
81629;SDS011;71039;49.500;10.418;2023-07-13T07:01:16;0.40;;;0.32;;
81629;SDS011;71039;49.500;10.418;2023-07-13T07:03:41;0.60;;;0.30;;
81629;SDS011;71039;49.500;10.418;2023-07-13T07:08:41;0.35;;;0.35;;
81629;SDS011;71039;49.500;10.418;2023-07-13T07:11:14;0.43;;;0.32;;
81629;SDS011;71039;49.500;10.418;2023-07-13T07:13:41;1.88;;;0.60;;
81629;SDS011;71039;49.500;10.418;2023-07-13T07:16:07;0.43;;;0.22;;
81629;SDS011;71039;49.500;10.418;2023-07-13T07:18:32;1.40;;;0.30;;
81629;SDS011;71039;49.500;10.418;2023-07-13T07:20:58;0.45;;;0.30;;
81629;SDS011;71039;49.500;10.418;2023-07-13T07:23:23;3.25;;;0.55;;
81629;SDS011;71039;49.500;10.418;2023-07-13T07:25:49;22.48;;;1.45;;
81629;SDS011;71039;49.500;10.418;2023-07-13T07:28:15;12.38;;;1.92;;
81629;SDS011;71039;49.500;10.418;2023-07-13T07:30:41;2.58;;;0.35;;
81629;SDS011;71039;49.500;10.418;2023-07-13T07:33:07;1.10;;;0.50;;
81629;SDS011;71039;49.500;10.418;2023-07-13T07:35:33;1.95;;;0.63;;
81629;SDS011;71039;49.500;10.418;2023-07-13T07:37:58;2.58;;;0.52;;
81629;SDS011;71039;49.500;10.418;2023-07-13T07:40:24;0.65;;;0.30;;
81629;SDS011;71039;49.500;10.418;2023-07-13T07:42:49;1.75;;;0.50;;
81629;SDS011;71039;49.500;10.418;2023-07-13T07:45:15;1.45;;;0.30;;
81629;SDS011;71039;49.500;10.418;2023-07-13T07:47:40;1.42;;;0.50;;
81629;SDS011;71039;49.500;10.418;2023-07-13T07:50:06;5.65;;;0.80;;
81629;SDS011;71039;49.500;10.418;2023-07-13T07:52:31;2.78;;;0.50;;
81629;SDS011;71039;49.500;10.418;2023-07-13T07:54:57;1.33;;;0.32;;
81629;SDS011;71039;49.500;10.418;2023-07-13T07:57:22;1.40;;;0.50;;
81629;SDS011;71039;49.500;10.418;2023-07-13T07:59:48;0.77;;;0.30;;
81629;SDS011;71039;49.500;10.418;2023-07-13T08:02:13;4.10;;;0.60;;
81629;SDS011;71039;49.500;10.418;2023-07-13T08:04:39;1.25;;;0.30;;
81629;SDS011;71039;49.500;10.418;2023-07-13T08:07:04;0.20;;;0.20;;
81629;SDS011;71039;49.500;10.418;2023-07-13T08:09:30;0.80;;;0.30;;
81629;SDS011;71039;49.500;10.418;2023-07-13T08:11:55;0.63;;;0.30;;
81629;SDS011;71039;49.500;10.418;2023-07-13T08:14:21;1.23;;;0.50;;
81629;SDS011;71039;49.500;10.418;2023-07-13T08:16:46;4.55;;;0.43;;
81629;SDS011;71039;49.500;10.418;2023-07-13T08:19:12;4.53;;;0.50;;
81629;SDS011;71039;49.500;10.418;2023-07-13T08:21:37;1.73;;;0.52;;
81629;SDS011;71039;49.500;10.418;2023-07-13T08:24:03;0.68;;;0.35;;
81629;SDS011;71039;49.500;10.418;2023-07-13T08:26:29;0.68;;;0.32;;
81629;SDS011;71039;49.500;10.418;2023-07-13T08:28:54;2.20;;;0.40;;
81629;SDS011;71039;49.500;10.418;2023-07-13T08:31:20;0.82;;;0.20;;
81629;SDS011;71039;49.500;10.418;2023-07-13T08:33:45;1.30;;;0.30;;
81629;SDS011;71039;49.500;10.418;2023-07-13T08:36:11;0.70;;;0.40;;
81629;SDS011;71039;49.500;10.418;2023-07-13T08:38:36;0.45;;;0.20;;
81629;SDS011;71039;49.500;10.418;2023-07-13T08:41:04;0.60;;;0.22;;
81629;SDS011;71039;49.500;10.418;2023-07-13T08:43:39;6.43;;;0.50;;
81629;SDS011;71039;49.500;10.418;2023-07-13T08:51:51;0.32;;;0.20;;
81629;SDS011;71039;49.500;10.418;2023-07-13T08:54:22;0.93;;;0.20;;
81629;SDS011;71039;49.500;10.418;2023-07-13T08:56:51;0.45;;;0.30;;
81629;SDS011;71039;49.500;10.418;2023-07-13T08:59:19;0.38;;;0.35;;
81629;SDS011;71039;49.500;10.418;2023-07-13T09:04:36;0.47;;;0.22;;
81629;SDS011;71039;49.500;10.418;2023-07-13T09:12:26;1.73;;;0.32;;
81629;SDS011;71039;49.500;10.418;2023-07-13T09:14:59;1.40;;;0.55;;
81629;SDS011;71039;49.500;10.418;2023-07-13T09:17:27;3.22;;;0.43;;
81629;SDS011;71039;49.500;10.418;2023-07-13T09:20:01;0.75;;;0.30;;
81629;SDS011;71039;49.500;10.418;2023-07-13T09:22:34;0.30;;;0.20;;
81629;SDS011;71039;49.500;10.418;2023-07-13T09:25:45;0.65;;;0.40;;
81629;SDS011;71039;49.500;10.418;2023-07-13T09:27:57;0.63;;;0.22;;
81629;SDS011;71039;49.500;10.418;2023-07-13T09:30:34;0.30;;;0.30;;
81629;SDS011;71039;49.500;10.418;2023-07-13T09:33:20;0.43;;;0.25;;
81629;SDS011;71039;49.500;10.418;2023-07-13T09:35:46;1.35;;;0.43;;
81629;SDS011;71039;49.500;10.418;2023-07-13T09:38:16;0.45;;;0.30;;
81629;SDS011;71039;49.500;10.418;2023-07-13T09:43:17;0.55;;;0.30;;
81629;SDS011;71039;49.500;10.418;2023-07-13T09:45:45;1.98;;;0.32;;
81629;SDS011;71039;49.500;10.418;2023-07-13T09:48:12;2.13;;;0.60;;
81629;SDS011;71039;49.500;10.418;2023-07-13T09:50:39;1.25;;;0.40;;
81629;SDS011;71039;49.500;10.418;2023-07-13T09:53:11;0.52;;;0.30;;
81629;SDS011;71039;49.500;10.418;2023-07-13T09:55:38;1.13;;;0.30;;
81629;SDS011;71039;49.500;10.418;2023-07-13T09:58:15;0.65;;;0.50;;
81629;SDS011;71039;49.500;10.418;2023-07-13T10:00:43;1.05;;;0.40;;
81629;SDS011;71039;49.500;10.418;2023-07-13T10:03:30;0.98;;;0.30;;
81629;SDS011;71039;49.500;10.418;2023-07-13T10:06:00;0.35;;;0.32;;
81629;SDS011;71039;49.500;10.418;2023-07-13T10:08:41;0.47;;;0.35;;
81629;SDS011;71039;49.500;10.418;2023-07-13T10:11:11;0.40;;;0.28;;
81629;SDS011;71039;49.500;10.418;2023-07-13T10:16:21;0.30;;;0.30;;
81629;SDS011;71039;49.500;10.418;2023-07-13T10:21:18;1.35;;;0.60;;
81629;SDS011;71039;49.500;10.418;2023-07-13T10:23:51;1.70;;;0.50;;
81629;SDS011;71039;49.500;10.418;2023-07-13T10:26:29;2.03;;;0.60;;
81629;SDS011;71039;49.500;10.418;2023-07-13T10:28:57;3.35;;;0.70;;
81629;SDS011;71039;49.500;10.418;2023-07-13T10:31:27;0.70;;;0.70;;
81629;SDS011;71039;49.500;10.418;2023-07-13T10:33:52;2.53;;;0.40;;
81629;SDS011;71039;49.500;10.418;2023-07-13T10:36:32;1.25;;;0.47;;
81629;SDS011;71039;49.500;10.418;2023-07-13T10:39:04;0.35;;;0.35;;
81629;SDS011;71039;49.500;10.418;2023-07-13T10:41:31;1.67;;;0.50;;
81629;SDS011;71039;49.500;10.418;2023-07-13T10:44:01;1.38;;;0.57;;
81629;SDS011;71039;49.500;10.418;2023-07-13T10:46:28;4.90;;;1.17;;
81629;SDS011;71039;49.500;10.418;2023-07-13T10:48:55;0.60;;;0.50;;
81629;SDS011;71039;49.500;10.418;2023-07-13T10:51:27;0.50;;;0.40;;
81629;SDS011;71039;49.500;10.418;2023-07-13T10:56:38;2.35;;;0.57;;
81629;SDS011;71039;49.500;10.418;2023-07-13T10:59:12;2.10;;;0.68;;
81629;SDS011;71039;49.500;10.418;2023-07-13T11:04:40;0.43;;;0.40;;
81629;SDS011;71039;49.500;10.418;2023-07-13T11:07:24;0.40;;;0.38;;
81629;SDS011;71039;49.500;10.418;2023-07-13T11:10:00;0.40;;;0.40;;
81629;SDS011;71039;49.500;10.418;2023-07-13T11:12:51;0.88;;;0.60;;
81629;SDS011;71039;49.500;10.418;2023-07-13T11:15:26;0.20;;;0.20;;
81629;SDS011;71039;49.500;10.418;2023-07-13T11:17:55;0.55;;;0.25;;
81629;SDS011;71039;49.500;10.418;2023-07-13T11:20:22;0.90;;;0.57;;
81629;SDS011;71039;49.500;10.418;2023-07-13T11:23:09;0.38;;;0.32;;
81629;SDS011;71039;49.500;10.418;2023-07-13T11:25:38;0.70;;;0.30;;
81629;SDS011;71039;49.500;10.418;2023-07-13T11:30:39;0.30;;;0.20;;
81629;SDS011;71039;49.500;10.418;2023-07-13T11:33:22;0.50;;;0.40;;
81629;SDS011;71039;49.500;10.418;2023-07-13T11:36:15;2.38;;;0.85;;
81629;SDS011;71039;49.500;10.418;2023-07-13T11:38:43;0.20;;;0.20;;
81629;SDS011;71039;49.500;10.418;2023-07-13T11:43:45;0.60;;;0.40;;
81629;SDS011;71039;49.500;10.418;2023-07-13T11:46:24;0.38;;;0.38;;
81629;SDS011;71039;49.500;10.418;2023-07-13T11:48:52;0.30;;;0.30;;
81629;SDS011;71039;49.500;10.418;2023-07-13T11:51:24;2.67;;;0.50;;
81629;SDS011;71039;49.500;10.418;2023-07-13T11:53:51;2.03;;;0.45;;
81629;SDS011;71039;49.500;10.418;2023-07-13T11:56:18;0.50;;;0.38;;
81629;SDS011;71039;49.500;10.418;2023-07-13T11:58:44;0.65;;;0.43;;
81629;SDS011;71039;49.500;10.418;2023-07-13T12:01:17;0.35;;;0.35;;
81629;SDS011;71039;49.500;10.418;2023-07-13T12:03:46;1.40;;;0.50;;
81629;SDS011;71039;49.500;10.418;2023-07-13T12:06:21;1.25;;;0.40;;
81629;SDS011;71039;49.500;10.418;2023-07-13T12:08:56;0.60;;;0.52;;
81629;SDS011;71039;49.500;10.418;2023-07-13T12:11:22;0.30;;;0.20;;
81629;SDS011;71039;49.500;10.418;2023-07-13T12:13:48;0.30;;;0.28;;
81629;SDS011;71039;49.500;10.418;2023-07-13T12:16:25;0.60;;;0.28;;
81629;SDS011;71039;49.500;10.418;2023-07-13T12:18:53;1.20;;;0.50;;
81629;SDS011;71039;49.500;10.418;2023-07-13T12:21:22;1.70;;;0.40;;
81629;SDS011;71039;49.500;10.418;2023-07-13T12:23:54;0.40;;;0.38;;
81629;SDS011;71039;49.500;10.418;2023-07-13T12:26:20;0.55;;;0.38;;
81629;SDS011;71039;49.500;10.418;2023-07-13T12:33:56;4.18;;;0.70;;
81629;SDS011;71039;49.500;10.418;2023-07-13T12:36:23;5.55;;;0.52;;
81629;SDS011;71039;49.500;10.418;2023-07-13T12:38:48;0.50;;;0.50;;
81629;SDS011;71039;49.500;10.418;2023-07-13T12:41:14;0.75;;;0.30;;
81629;SDS011;71039;49.500;10.418;2023-07-13T12:43:40;0.45;;;0.30;;
81629;SDS011;71039;49.500;10.418;2023-07-13T12:46:19;0.40;;;0.32;;
81629;SDS011;71039;49.500;10.418;2023-07-13T12:48:49;0.60;;;0.40;;
81629;SDS011;71039;49.500;10.418;2023-07-13T12:51:16;1.08;;;0.52;;
81629;SDS011;71039;49.500;10.418;2023-07-13T12:53:50;7.43;;;0.68;;
81629;SDS011;71039;49.500;10.418;2023-07-13T12:56:32;0.50;;;0.40;;
81629;SDS011;71039;49.500;10.418;2023-07-13T12:58:58;1.52;;;0.38;;
81629;SDS011;71039;49.500;10.418;2023-07-13T13:01:29;5.45;;;0.68;;
81629;SDS011;71039;49.500;10.418;2023-07-13T13:03:57;6.88;;;0.80;;
81629;SDS011;71039;49.500;10.418;2023-07-13T13:06:28;0.88;;;0.43;;
81629;SDS011;71039;49.500;10.418;2023-07-13T13:08:57;0.80;;;0.50;;
81629;SDS011;71039;49.500;10.418;2023-07-13T13:11:25;0.43;;;0.43;;
81629;SDS011;71039;49.500;10.418;2023-07-13T13:13:52;0.70;;;0.70;;
81629;SDS011;71039;49.500;10.418;2023-07-13T13:16:22;1.48;;;0.32;;
81629;SDS011;71039;49.500;10.418;2023-07-13T13:18:55;1.65;;;0.30;;
81629;SDS011;71039;49.500;10.418;2023-07-13T13:21:22;0.90;;;0.20;;
81629;SDS011;71039;49.500;10.418;2023-07-13T13:23:48;0.60;;;0.28;;
81629;SDS011;71039;49.500;10.418;2023-07-13T13:26:14;0.80;;;0.30;;
81629;SDS011;71039;49.500;10.418;2023-07-13T13:28:41;1.52;;;0.40;;
81629;SDS011;71039;49.500;10.418;2023-07-13T13:31:08;1.05;;;0.47;;
81629;SDS011;71039;49.500;10.418;2023-07-13T13:33:33;0.82;;;0.40;;
81629;SDS011;71039;49.500;10.418;2023-07-13T13:35:59;0.60;;;0.32;;
81629;SDS011;71039;49.500;10.418;2023-07-13T13:38:26;1.90;;;0.30;;
81629;SDS011;71039;49.500;10.418;2023-07-13T13:40:52;1.88;;;0.30;;
81629;SDS011;71039;49.500;10.418;2023-07-13T13:43:24;0.35;;;0.30;;
81629;SDS011;71039;49.500;10.418;2023-07-13T13:45:51;0.68;;;0.40;;
81629;SDS011;71039;49.500;10.418;2023-07-13T13:48:20;0.63;;;0.22;;
81629;SDS011;71039;49.500;10.418;2023-07-13T13:50:51;0.30;;;0.30;;
81629;SDS011;71039;49.500;10.418;2023-07-13T13:53:17;0.98;;;0.57;;
81629;SDS011;71039;49.500;10.418;2023-07-13T13:55:42;0.50;;;0.40;;
81629;SDS011;71039;49.500;10.418;2023-07-13T13:58:09;1.90;;;0.32;;
81629;SDS011;71039;49.500;10.418;2023-07-13T14:03:01;0.52;;;0.30;;
81629;SDS011;71039;49.500;10.418;2023-07-13T14:05:27;0.98;;;0.70;;
81629;SDS011;71039;49.500;10.418;2023-07-13T14:07:53;0.40;;;0.32;;
81629;SDS011;71039;49.500;10.418;2023-07-13T14:10:19;0.80;;;0.38;;
81629;SDS011;71039;49.500;10.418;2023-07-13T14:12:47;0.30;;;0.28;;
81629;SDS011;71039;49.500;10.418;2023-07-13T14:15:36;0.65;;;0.40;;
81629;SDS011;71039;49.500;10.418;2023-07-13T14:18:01;0.50;;;0.35;;
81629;SDS011;71039;49.500;10.418;2023-07-13T14:20:26;0.63;;;0.30;;
81629;SDS011;71039;49.500;10.418;2023-07-13T14:22:52;0.82;;;0.70;;
81629;SDS011;71039;49.500;10.418;2023-07-13T14:25:18;0.52;;;0.38;;
81629;SDS011;71039;49.500;10.418;2023-07-13T14:27:45;1.70;;;0.77;;
81629;SDS011;71039;49.500;10.418;2023-07-13T14:30:20;1.60;;;0.70;;
81629;SDS011;71039;49.500;10.418;2023-07-13T14:32:46;3.28;;;0.57;;
81629;SDS011;71039;49.500;10.418;2023-07-13T14:35:13;2.25;;;0.60;;
81629;SDS011;71039;49.500;10.418;2023-07-13T14:40:15;0.85;;;0.47;;
81629;SDS011;71039;49.500;10.418;2023-07-13T14:42:42;0.52;;;0.30;;
81629;SDS011;71039;49.500;10.418;2023-07-13T14:45:15;1.45;;;0.40;;
81629;SDS011;71039;49.500;10.418;2023-07-13T14:47:42;0.85;;;0.50;;
81629;SDS011;71039;49.500;10.418;2023-07-13T14:50:11;0.80;;;0.73;;
81629;SDS011;71039;49.500;10.418;2023-07-13T14:52:39;0.73;;;0.40;;
81629;SDS011;71039;49.500;10.418;2023-07-13T14:55:09;2.22;;;0.50;;
81629;SDS011;71039;49.500;10.418;2023-07-13T14:57:39;1.00;;;0.50;;
81629;SDS011;71039;49.500;10.418;2023-07-13T15:00:12;0.43;;;0.40;;
81629;SDS011;71039;49.500;10.418;2023-07-13T15:02:38;0.40;;;0.40;;
81629;SDS011;71039;49.500;10.418;2023-07-13T15:05:24;0.52;;;0.50;;
81629;SDS011;71039;49.500;10.418;2023-07-13T15:07:51;0.82;;;0.50;;
81629;SDS011;71039;49.500;10.418;2023-07-13T15:12:44;0.30;;;0.30;;
81629;SDS011;71039;49.500;10.418;2023-07-13T15:15:10;0.60;;;0.60;;
81629;SDS011;71039;49.500;10.418;2023-07-13T15:17:37;0.30;;;0.30;;
81629;SDS011;71039;49.500;10.418;2023-07-13T15:20:06;2.55;;;0.52;;
81629;SDS011;71039;49.500;10.418;2023-07-13T15:22:41;0.43;;;0.38;;
81629;SDS011;71039;49.500;10.418;2023-07-13T15:25:11;0.88;;;0.52;;
81629;SDS011;71039;49.500;10.418;2023-07-13T15:27:42;0.50;;;0.45;;
81629;SDS011;71039;49.500;10.418;2023-07-13T15:30:08;1.35;;;0.40;;
81629;SDS011;71039;49.500;10.418;2023-07-13T15:32:34;0.95;;;0.43;;
81629;SDS011;71039;49.500;10.418;2023-07-13T15:34:59;1.10;;;0.50;;